Flight Track Log - Related Links

Times and Time Zones

All times are in EDT time to prevent confusion due to time zone crossing. See the FLG4134 flight status page for this flight to view local times or setup timezone preferences in your user account.

Time Position Orientation Groundspeed Altitude Reporting Facility
EDT Latitude Longitude Course Direction KTS MPH feet Rate Location/Type
Thu 11:00:00 AM 42.1972 -83.3608 180° South 170 196 1,200  Level Cleveland Center
Thu 11:00:43 AM 42.1658 -83.3611 182° South 189 217 2,600 2,093 Climbing FAA TRACON SMA TRACON (SMA)
Thu 11:01:26 AM 42.1219 -83.3628 182° South 214 246 4,200 1,950 Climbing FAA TRACON SMA TRACON (SMA)
Thu 11:02:03 AM 42.0856 -83.3642 170° South 243 280 5,200 2,338 Climbing FAA TRACON SMA TRACON (SMA)
Thu 11:02:43 AM 42.0364 -83.3522 112° Southeast 266 306 7,200 3,036 Climbing FAA TRACON SMA TRACON (SMA)
Thu 11:03:26 AM 42.0158 -83.2828 66° East 289 333 9,400 2,100 Climbing FAA TRACON SMA TRACON (SMA)
Thu 11:04:03 AM 42.0350 -83.2250 60° Northeast 315 362 10,000 468 Climbing FAA TRACON SMA TRACON (SMA)
Thu 11:04:43 AM 42.0678 -83.1497 60° Northeast 337 388 10,000  Level FAA TRACON SMA TRACON (SMA)
Thu 11:05:23 AM 42.1000 -83.0758 59° Northeast 341 392 10,000  Level FAA TRACON SMA TRACON (SMA)
Thu 11:06:03 AM 42.1308 -83.0064 60° Northeast 340 391 10,000 1,050 Level FAA TRACON SMA TRACON (SMA)
Thu 11:06:43 AM 42.1639 -82.9300 60° Northeast 341 392 11,400 1,950 Climbing FAA TRACON SMA TRACON (SMA)
Thu 11:07:23 AM 42.1978 -82.8522 60° Northeast 345 397 12,600 1,778 Climbing FAA TRACON SMA TRACON (SMA)
Thu 11:08:04 AM 42.2311 -82.7750 59° Northeast 353 406 13,800 1,050 Climbing FAA TRACON SMA TRACON (SMA)
Thu 11:08:43 AM 42.2636 -82.7006 60° Northeast 359 413 14,000 759 Climbing FAA TRACON SMA TRACON (SMA)
Thu 11:09:23 AM 42.2986 -82.6192 60° Northeast 362 417 14,800 1,425 Climbing FAA TRACON SMA TRACON (SMA)
Thu 11:10:03 AM 42.3325 -82.5394 61° Northeast 364 419 15,900 1,200 Climbing FAA TRACON SMA TRACON (SMA)
Thu 11:10:43 AM 42.3639 -82.4619 88° East 367 422 16,400 1,200 Climbing FAA TRACON SMA TRACON (SMA)
Thu 11:11:23 AM 42.3658 -82.3667 93° East 367 422 17,500 1,200 Climbing FAA TRACON SMA TRACON (SMA)
Thu 11:12:03 AM 42.3619 -82.2739 92° East 370 426 18,000 825 Climbing FAA TRACON SMA TRACON (SMA)
Thu 11:12:43 AM 42.3594 -82.1936 94° East 374 430 18,600 955 Climbing FAA TRACON SMA TRACON (SMA)
Thu 11:13:31 AM 42.3528 -82.0583 93° East 382 440 19,400 1,000 Climbing Cleveland Center
Thu 11:14:31 AM 42.3461 -81.9092 94° East 387 445 20,400 950 Climbing Cleveland Center
Thu 11:15:31 AM 42.3375 -81.7572 93° East 396 456 21,300 950 Climbing Cleveland Center
Thu 11:16:31 AM 42.3306 -81.6000 93° East 410 472 22,300 1,450 Climbing Cleveland Center
Thu 11:17:31 AM 42.3256 -81.4508 95° East 404 465 24,200 1,750 Climbing Cleveland Center
Thu 11:18:31 AM 42.3161 -81.3075 94° East 398 458 25,800 1,300 Climbing Cleveland Center
Thu 11:19:31 AM 42.3086 -81.1672 93° East 387 445 26,800 600 Climbing Cleveland Center
Thu 11:20:31 AM 42.3031 -81.0322 94° East 387 445 27,000 100 Climbing Cleveland Center
Thu 11:21:31 AM 42.2953 -80.8722 90° East 407 468 27,000  Level Cleveland Center
Thu 11:22:31 AM 42.2956 -80.7067 84° East 427 491 27,000  Level Cleveland Center
Thu 11:23:31 AM 42.3081 -80.5383 85° East 446 513 27,000  Level Cleveland Center
Thu 11:24:31 AM 42.3183 -80.3669 85° East 452 520 27,000  Level Cleveland Center
Thu 11:25:31 AM 42.3303 -80.1844 86° East 452 520 27,000  Level Cleveland Center
Thu 11:26:31 AM 42.3400 -80.0131 86° East 452 520 27,000  Level Cleveland Center
Thu 11:27:31 AM 42.3494 -79.8444 86° East 458 527 27,000  Level Cleveland Center
Thu 11:28:31 AM 42.3586 -79.6728 86° East 458 527 27,000  Level Cleveland Center
Thu 11:29:31 AM 42.3675 -79.5011 85° East 463 533 27,000  Level Cleveland Center
Thu 11:30:31 AM 42.3783 -79.3267 86° East 458 527 27,000  Level Cleveland Center
Thu 11:31:31 AM 42.3869 -79.1581 86° East 458 527 27,000  Level Cleveland Center
Thu 11:32:31 AM 42.3950 -78.9833 86° East 458 527 27,000  Level Cleveland Center
Thu 11:33:31 AM 42.4028 -78.8089 86° East 464 534 27,000  Level Cleveland Center
Thu 11:34:31 AM 42.4106 -78.6372 86° East 464 534 27,000  Level Cleveland Center
Thu 11:35:31 AM 42.4197 -78.4597 86° East 464 534 27,000  Level Cleveland Center
Thu 11:36:31 AM 42.4292 -78.2906 87° East 459 528 27,000 -1,200 Level Cleveland Center
Thu 11:37:31 AM 42.4361 -78.1186 88° East 464 534 24,600 -2,400 Descending Cleveland Center
Thu 11:38:31 AM 42.4408 -77.9581 88° East 442 509 22,200 -2,100 Descending Cleveland Center
Thu 11:39:31 AM 42.4444 -77.8425 87° East 420 483 20,400 -1,950 Descending Cleveland Center
Thu 11:40:31 AM 42.4508 -77.6792 87° East 398 458 18,300 -2,053 Descending Cleveland Center
Thu 11:42:41 AM 42.4611 -77.3633 87° East 372 428 13,900 -2,090 Descending Cleveland Center
Thu 11:43:29 AM 42.4661 -77.2475 88° East 371 427 12,100 -1,864 Descending Cleveland Center
Thu 11:44:24 AM 42.4689 -77.1292 87° East 346 398 10,700 -1,500 Descending Cleveland Center
Thu 11:46:25 AM 42.4767 -76.9064 76° East 289 333 7,700 -1,500 Descending Cleveland Center
Thu 11:48:16 AM 42.5086 -76.7361 44° Northeast 249 287 4,900 -1,349 Descending New York Center
Thu 11:49:14 AM 42.5553 -76.6756 71° East 235 270 3,900 -807 Descending New York Center
Thu 11:50:15 AM 42.5731 -76.6067 119° Southeast 213 245 3,300 -595 Descending New York Center
Thu 11:51:15 AM 42.5472 -76.5425 119° Southeast 172 198 2,700 -600 Descending New York Center

Login

Don't have an account? Register now (free) for customized features, flight alerts, and more!